Terminal Aerodrome Forecast
Issued by NWS

Home | Current Version | Previous Version | Text Only | Print | Product List | Glossary On
Versions: 1 2 3 4 5 6 7 8 9 10 11 12
000
FTUS44 KLZK 281141
TAFHOT
TAF
KHOT 281141Z 2812/2912 00000KT P6SM VCSH BKN070 OVC100
      TEMPO 2812/2816 4SM -SHRA FEW040 OVC060
     FM281800 27006KT P6SM BKN050 OVC100
     FM290000 04003KT P6SM SCT100 BKN250
     FM290600 05002KT P6SM FEW100=

USA.gov is the U.S. government's official web portal to all federal, state and local government web resources and services.